Main page
METAR-TAF:

METAR-TAF

Airports :

Sary-Arka Airport

Karaganda, Kazakhstan

latitude: 49-48N, longitude: 073-09E, elevation: 553 m

Current weather observation

The report was made 19 minutes ago, at 16:30 UTC
Wind 8 kt from the East
Temperature 10°C
Humidity 57%
Pressure 1020 hPa
Visibility 10 km or more
no clouds below 1500 m and no cumulonimbus

METAR: UAKK 281630Z 09004MPS CAVOK 10/02 Q1020 R05/0///70 NOSIG RMK QFE718/0957

Time: 22:49 (16:49 UTC)

Forecast

The report was made 5 hours and 49 minutes ago, at 11:00 UTC
Forecast valid from 28 at 12 UTC to 29 at 12 UTC
Wind 10 kt from the East/Northeast
Visibility 10 km or more
no clouds below 1500 m and no cumulonimbus
Becoming
from 28 at 14 UTC to 28 at 16 UTC
Wind 4 kt from variable directions

TAF: UAKK 281100Z 2812/2912 06005MPS CAVOK TX23/2910Z TN02/2823Z BECMG 2814/2816 VRB02MPS

Weather observations and forecasts of more than 4000 airports (METAR and TAF reports).

The available stations are represented by yellow and red dots on the map.

Hover mouse over dot to see the name of the station.

Then click to see weather observations and forecasts.

To change the map : click on the green buttons with a black cross to zoom in, on the green button with a dash to zoom out, or on the green arrows for adjacent maps.


METAR-TAF: